Time;durP1;ratioP1;P1;durP2;ratioP2;P2;SDS_P1;SDS_P2;PMS_P1;PMS_P2;Temp;Humidity;BMP_temperature;BMP_pressure;BME280_temperature;BME280_humidity;BME280_pressure;Samples;Min_cycle;Max_cycle;Signal;HPM_P1;HPM_P2
2023/08/14 00:01:54;;;;;;;6.35;2.60;;;;;;;19.05;100.00;96742.06;5013039;28;20505;-68
2023/08/14 00:04:19;;;;;;;4.43;2.10;;;;;;;19.14;100.00;96741.50;5012703;28;20483;-68
2023/08/14 00:06:44;;;;;;;3.72;2.15;;;;;;;19.13;100.00;96739.16;5012362;28;20033;-67
2023/08/14 00:09:10;;;;;;;3.40;2.00;;;;;;;19.10;100.00;96747.13;5013898;28;20530;-67
2023/08/14 00:11:35;;;;;;;4.10;1.80;;;;;;;19.15;100.00;96750.63;5012818;28;20449;-67
2023/08/14 00:14:01;;;;;;;3.88;2.28;;;;;;;19.13;100.00;96753.03;5012937;28;20487;-67
2023/08/14 00:16:27;;;;;;;7.07;2.33;;;;;;;19.12;100.00;96743.91;5012697;28;20057;-68
2023/08/14 00:18:53;;;;;;;6.90;2.10;;;;;;;19.06;100.00;96745.59;5012685;28;20030;-67
2023/08/14 00:21:19;;;;;;;5.18;2.25;;;;;;;18.98;100.00;96735.81;5012910;28;20030;-67
2023/08/14 00:23:44;;;;;;;4.80;1.90;;;;;;;18.91;100.00;96728.41;5014400;28;20323;-67
2023/08/14 00:26:11;;;;;;;4.97;2.53;;;;;;;18.84;100.00;96732.06;5013749;28;20035;-67
2023/08/14 00:28:37;;;;;;;7.38;2.60;;;;;;;18.82;100.00;96728.16;5013476;28;20037;-66
2023/08/14 00:31:02;;;;;;;5.53;2.42;;;;;;;18.98;100.00;96716.38;5014946;28;20352;-67
2023/08/14 00:33:28;;;;;;;5.20;2.20;;;;;;;19.03;100.00;96727.81;5013280;28;20046;-67
2023/08/14 00:35:53;;;;;;;5.05;2.53;;;;;;;19.06;100.00;96731.72;5013784;28;20037;-68
2023/08/14 00:38:19;;;;;;;7.45;2.40;;;;;;;19.11;100.00;96720.16;5012733;28;20116;-67
2023/08/14 00:40:44;;;;;;;5.28;2.80;;;;;;;18.99;100.00;96729.06;5012713;28;20442;-67
2023/08/14 00:43:09;;;;;;;4.70;2.13;;;;;;;18.96;100.00;96730.72;5012188;28;20030;-67
2023/08/14 00:45:35;;;;;;;5.82;2.58;;;;;;;18.95;100.00;96728.34;5020453;28;20034;-67
2023/08/14 00:48:01;;;;;;;5.18;2.15;;;;;;;18.90;100.00;96730.38;5017766;28;20033;-67
2023/08/14 00:50:26;;;;;;;5.85;1.95;;;;;;;18.98;100.00;96733.03;5012874;28;20026;-67
2023/08/14 00:52:56;;;;;;;6.10;2.63;;;;;;;19.01;100.00;96732.97;5012483;28;20029;-67
2023/08/14 00:55:26;;;;;;;3.92;2.10;;;;;;;19.00;100.00;96727.88;5013109;28;20479;-68
2023/08/14 00:57:52;;;;;;;4.03;2.20;;;;;;;18.96;100.00;96725.16;5011328;28;20030;-68
2023/08/14 01:00:18;;;;;;;3.83;2.25;;;;;;;19.00;100.00;96723.09;5011907;28;20124;-68
2023/08/14 01:02:45;;;;;;;4.85;2.33;;;;;;;19.04;100.00;96720.25;5012183;28;20109;-66
2023/08/14 01:05:11;;;;;;;4.60;2.38;;;;;;;18.99;100.00;96709.63;5012113;28;20025;-68
2023/08/14 01:07:37;;;;;;;5.70;2.13;;;;;;;18.93;100.00;96711.34;5012147;28;20034;-68
2023/08/14 01:10:03;;;;;;;4.10;2.15;;;;;;;18.93;100.00;96714.13;5012163;28;20101;-68
2023/08/14 01:12:42;;;;;;;4.28;2.15;;;;;;;18.97;100.00;96728.72;5011837;28;20030;-68
2023/08/14 01:15:16;;;;;;;3.80;2.00;;;;;;;19.00;100.00;96728.66;5012145;28;20755;-67
2023/08/14 01:17:50;;;;;;;5.70;2.85;;;;;;;19.02;100.00;96722.69;5014845;28;20113;-68
2023/08/14 01:20:18;;;;;;;5.38;2.45;;;;;;;19.01;100.00;96719.09;5015898;28;20395;-68
2023/08/14 01:22:55;;;;;;;4.22;2.15;;;;;;;19.00;100.00;96714.00;5015752;28;20030;-68
2023/08/14 01:25:31;;;;;;;5.85;2.30;;;;;;;19.12;100.00;96715.38;5016053;28;20037;-68
2023/08/14 01:27:59;;;;;;;3.30;2.17;;;;;;;19.15;100.00;96711.75;5015711;28;20042;-68
2023/08/14 01:30:24;;;;;;;3.80;2.00;;;;;;;19.08;100.00;96698.78;5015833;28;20041;-68
2023/08/14 01:32:50;;;;;;;4.28;2.45;;;;;;;19.04;100.00;96692.50;5015661;28;20398;-68
2023/08/14 01:35:22;;;;;;;4.65;2.30;;;;;;;19.03;100.00;96691.72;5015792;28;20502;-68
2023/08/14 01:38:05;;;;;;;4.15;2.08;;;;;;;19.14;100.00;96704.63;5015762;28;20037;-68
2023/08/14 01:40:45;;;;;;;3.67;2.10;;;;;;;19.19;100.00;96696.59;5015593;28;20117;-68
2023/08/14 01:43:15;;;;;;;5.80;2.50;;;;;;;19.18;100.00;96699.81;5016635;28;20038;-68
2023/08/14 01:45:41;;;;;;;5.15;2.30;;;;;;;19.08;100.00;96701.56;5024999;28;20026;-68
2023/08/14 01:48:08;;;;;;;7.75;2.67;;;;;;;19.12;100.00;96698.72;5028486;28;20098;-68
2023/08/14 01:50:35;;;;;;;8.25;2.65;;;;;;;19.29;100.00;96711.50;5030378;28;20026;-67
2023/08/14 01:53:00;;;;;;;4.88;2.55;;;;;;;19.48;100.00;96721.88;5029752;28;20034;-68
2023/08/14 01:55:25;;;;;;;5.10;2.58;;;;;;;19.54;100.00;96707.50;5019286;28;20030;-67
2023/08/14 01:57:52;;;;;;;4.28;2.45;;;;;;;19.41;100.00;96710.88;5016427;28;20475;-67
2023/08/14 02:00:18;;;;;;;4.45;2.28;;;;;;;19.41;100.00;96713.66;5015177;28;20513;-68
2023/08/14 02:02:43;;;;;;;5.40;2.70;;;;;;;19.43;100.00;96707.69;5015357;28;20034;-68
2023/08/14 02:05:08;;;;;;;4.65;2.25;;;;;;;19.38;100.00;96708.19;5016557;28;20036;-66
2023/08/14 02:07:34;;;;;;;3.70;2.55;;;;;;;19.25;100.00;96705.25;5016424;28;20056;-67
2023/08/14 02:09:59;;;;;;;5.78;2.88;;;;;;;19.21;100.00;96702.53;5015173;28;20034;-68
2023/08/14 02:12:25;;;;;;;7.20;2.40;;;;;;;19.15;100.00;96698.66;5014862;28;20234;-67
2023/08/14 02:14:50;;;;;;;6.15;2.70;;;;;;;19.13;100.00;96691.97;5014990;28;20026;-68
2023/08/14 02:17:15;;;;;;;7.57;2.67;;;;;;;19.15;100.00;96686.78;5015036;28;20042;-68
2023/08/14 02:19:41;;;;;;;7.00;3.05;;;;;;;19.06;100.00;96690.09;5014867;28;20379;-68
2023/08/14 02:22:06;;;;;;;4.30;2.60;;;;;;;18.81;100.00;96688.50;5014638;28;20041;-68
2023/08/14 02:24:32;;;;;;;5.50;3.10;;;;;;;18.72;100.00;96689.00;5013653;28;20041;-68
2023/08/14 02:26:57;;;;;;;3.25;2.45;;;;;;;18.67;100.00;96692.28;5015022;28;20153;-68
2023/08/14 02:29:22;;;;;;;5.10;2.80;;;;;;;18.65;100.00;96688.34;5013784;28;20399;-66
2023/08/14 02:31:50;;;;;;;6.65;3.13;;;;;;;18.59;100.00;96685.28;5014771;28;20036;-68
2023/08/14 02:34:42;;;;;;;5.07;2.70;;;;;;;18.83;100.00;96686.09;5016553;28;20033;-68
2023/08/14 02:37:08;;;;;;;4.47;2.47;;;;;;;18.99;100.00;96679.88;5016563;28;20085;-68
2023/08/14 02:39:33;;;;;;;4.47;2.53;;;;;;;19.14;100.00;96683.22;5016169;28;20037;-68
2023/08/14 02:41:58;;;;;;;4.00;2.50;;;;;;;19.21;100.00;96674.75;5016763;28;20030;-68
2023/08/14 02:44:24;;;;;;;4.88;2.63;;;;;;;19.24;100.00;96665.56;5016125;28;20026;-68
2023/08/14 02:46:49;;;;;;;4.22;2.67;;;;;;;19.25;100.00;96667.16;5015433;28;20054;-67
2023/08/14 02:49:14;;;;;;;4.80;2.80;;;;;;;19.25;100.00;96669.16;5021841;28;20034;-67
2023/08/14 02:51:40;;;;;;;4.07;2.80;;;;;;;19.21;100.00;96671.97;5014780;28;20411;-68
2023/08/14 02:54:05;;;;;;;2.97;2.33;;;;;;;19.19;100.00;96673.59;5014381;28;20117;-67
2023/08/14 02:56:30;;;;;;;5.55;3.03;;;;;;;19.08;100.00;96671.03;5014787;28;20030;-68
2023/08/14 02:58:56;;;;;;;8.45;2.75;;;;;;;18.97;100.00;96682.31;5013946;28;20542;-68
2023/08/14 03:01:21;;;;;;;4.03;2.60;;;;;;;19.01;100.00;96688.56;5014172;28;20436;-67
2023/08/14 03:03:47;;;;;;;4.15;2.60;;;;;;;18.99;100.00;96676.34;5013774;28;20026;-67
2023/08/14 03:06:12;;;;;;;7.15;2.88;;;;;;;18.74;100.00;96671.94;5014287;28;20339;-67
2023/08/14 03:08:38;;;;;;;5.85;3.17;;;;;;;18.39;100.00;96670.53;5014236;28;20030;-66
2023/08/14 03:11:03;;;;;;;7.05;3.53;;;;;;;18.23;100.00;96671.94;5013891;28;20057;-68
2023/08/14 03:13:28;;;;;;;6.93;3.60;;;;;;;18.20;100.00;96672.00;5013718;28;20071;-67
2023/08/14 03:15:54;;;;;;;11.07;3.55;;;;;;;18.13;100.00;96670.91;5013835;28;20118;-67
2023/08/14 03:18:19;;;;;;;4.85;3.42;;;;;;;18.24;100.00;96673.53;5014232;28;20026;-67
2023/08/14 03:20:44;;;;;;;5.25;3.05;;;;;;;18.30;100.00;96677.38;5013893;28;20029;-68
2023/08/14 03:23:10;;;;;;;5.88;2.92;;;;;;;18.34;100.00;96680.88;5014634;28;20030;-67
2023/08/14 03:25:35;;;;;;;6.93;3.70;;;;;;;18.26;100.00;96684.19;5015500;28;20069;-65
2023/08/14 03:28:00;;;;;;;5.03;3.75;;;;;;;18.19;100.00;96682.31;5015966;28;20030;-67
2023/08/14 03:30:26;;;;;;;5.85;3.65;;;;;;;18.18;100.00;96677.94;5014374;28;20026;-66
2023/08/14 03:32:51;;;;;;;6.53;3.63;;;;;;;18.17;100.00;96681.13;5013704;28;20483;-67
2023/08/14 03:35:16;;;;;;;8.07;4.03;;;;;;;18.19;100.00;96676.75;5015463;28;20030;-67
2023/08/14 03:37:42;;;;;;;7.88;4.35;;;;;;;18.13;100.00;96675.63;5018214;28;20026;-67
2023/08/14 03:40:08;;;;;;;5.90;4.22;;;;;;;18.03;100.00;96669.06;5014341;28;20386;-66
2023/08/14 03:42:33;;;;;;;6.55;4.25;;;;;;;17.91;100.00;96670.38;5015051;28;20058;-66
2023/08/14 03:44:59;;;;;;;5.63;4.43;;;;;;;17.90;100.00;96674.38;5014504;28;20108;-67
2023/08/14 03:47:24;;;;;;;5.85;4.30;;;;;;;17.94;100.00;96674.31;5013920;28;20508;-66
2023/08/14 03:49:49;;;;;;;8.60;4.15;;;;;;;17.86;100.00;96673.63;5013190;28;20080;-67
2023/08/14 03:52:15;;;;;;;5.65;4.25;;;;;;;17.84;100.00;96677.97;5013218;28;20442;-67
2023/08/14 03:54:40;;;;;;;8.10;4.53;;;;;;;17.90;100.00;96688.22;5013477;28;20060;-67
2023/08/14 03:57:06;;;;;;;7.18;4.10;;;;;;;17.99;100.00;96689.69;5013444;28;20060;-67
2023/08/14 03:59:31;;;;;;;6.80;3.95;;;;;;;18.11;100.00;96695.47;5013068;28;20041;-67
2023/08/14 04:01:56;;;;;;;9.40;4.57;;;;;;;18.22;100.00;96678.69;5013747;28;20576;-67
2023/08/14 04:04:22;;;;;;;7.90;4.18;;;;;;;18.22;100.00;96678.69;5014057;28;20482;-67
2023/08/14 04:06:47;;;;;;;10.13;4.50;;;;;;;18.14;100.00;96675.22;5012926;28;20025;-67
2023/08/14 04:09:13;;;;;;;7.07;4.25;;;;;;;18.13;100.00;96670.09;5013178;28;20026;-67
2023/08/14 04:11:39;;;;;;;5.70;3.92;;;;;;;18.19;100.00;96660.13;5013497;28;20088;-67
2023/08/14 04:14:05;;;;;;;7.20;3.35;;;;;;;18.09;100.00;96663.81;5012711;28;20483;-67
2023/08/14 04:16:43;;;;;;;9.48;4.00;;;;;;;17.99;100.00;96664.75;5012596;28;20073;-67
2023/08/14 04:19:14;;;;;;;5.90;4.10;;;;;;;17.96;100.00;96666.38;5012656;28;20546;-67
2023/08/14 04:21:41;;;;;;;9.18;4.40;;;;;;;17.92;100.00;96660.09;5012630;28;20026;-66
2023/08/14 04:24:07;;;;;;;8.40;4.70;;;;;;;17.95;100.00;96660.06;5012805;28;20033;-67
2023/08/14 04:26:33;;;;;;;7.00;4.80;;;;;;;17.92;100.00;96679.50;5012973;28;20033;-67
2023/08/14 04:28:58;;;;;;;9.93;5.00;;;;;;;17.94;100.00;96671.56;5012994;28;20075;-67
2023/08/14 04:31:24;;;;;;;8.13;5.00;;;;;;;17.90;100.00;96671.59;5012840;28;20030;-67
2023/08/14 04:33:49;;;;;;;13.57;4.88;;;;;;;17.84;100.00;96664.91;5012473;28;20364;-67
2023/08/14 04:36:14;;;;;;;8.90;5.18;;;;;;;17.81;100.00;96657.44;5017004;28;20038;-67
2023/08/14 04:38:40;;;;;;;6.15;5.13;;;;;;;17.83;100.00;96662.56;5022511;28;20153;-66
2023/08/14 04:41:05;;;;;;;6.97;5.30;;;;;;;17.87;100.00;96664.13;5012380;28;20037;-67
2023/08/14 04:43:31;;;;;;;8.70;5.70;;;;;;;17.95;100.00;96659.25;5012364;28;20030;-67
2023/08/14 04:45:57;;;;;;;13.30;6.25;;;;;;;17.96;100.00;96661.63;5011347;28;20490;-66
2023/08/14 04:48:23;;;;;;;11.13;5.93;;;;;;;18.00;100.00;96649.72;5012284;28;20459;-66
2023/08/14 04:50:48;;;;;;;13.10;6.70;;;;;;;18.07;100.00;96661.47;5012748;28;20080;-67
2023/08/14 04:53:14;;;;;;;11.73;7.68;;;;;;;18.11;100.00;96655.88;5012204;28;20419;-67
2023/08/14 04:55:39;;;;;;;10.98;7.45;;;;;;;18.18;100.00;96664.09;5012209;28;20030;-67
2023/08/14 04:58:04;;;;;;;10.60;7.20;;;;;;;18.21;100.00;96665.25;5013022;28;20395;-66
2023/08/14 05:00:30;;;;;;;10.68;6.43;;;;;;;18.21;100.00;96668.81;5013315;28;20038;-67
2023/08/14 05:02:55;;;;;;;10.20;6.07;;;;;;;18.25;100.00;96664.00;5012066;28;20463;-67
2023/08/14 05:05:21;;;;;;;9.57;5.63;;;;;;;18.24;100.00;96667.97;5013438;28;20085;-66
2023/08/14 05:07:46;;;;;;;7.57;5.30;;;;;;;18.46;100.00;96662.13;5014181;28;20387;-67
2023/08/14 05:10:12;;;;;;;8.85;5.55;;;;;;;18.41;100.00;96662.59;5012187;28;20426;-67
2023/08/14 05:12:37;;;;;;;9.32;5.22;;;;;;;18.43;100.00;96668.50;5011839;28;20061;-67
2023/08/14 05:15:03;;;;;;;7.13;5.03;;;;;;;18.64;100.00;96672.94;5011905;28;20034;-67
2023/08/14 05:17:29;;;;;;;7.40;4.75;;;;;;;18.94;100.00;96672.03;5012550;28;20030;-66
2023/08/14 05:19:55;;;;;;;8.48;5.00;;;;;;;18.74;100.00;96677.50;5013248;28;20116;-67
2023/08/14 05:22:21;;;;;;;8.75;4.75;;;;;;;18.55;100.00;96665.13;5010745;28;20471;-67
2023/08/14 05:24:47;;;;;;;7.55;5.82;;;;;;;18.42;100.00;96661.38;5012019;28;20489;-67
2023/08/14 05:27:12;;;;;;;7.95;5.05;;;;;;;18.44;100.00;96659.75;5011925;28;20068;-67
2023/08/14 05:29:37;;;;;;;8.98;5.43;;;;;;;18.46;100.00;96659.34;5011744;28;20080;-67
2023/08/14 05:32:04;;;;;;;6.68;4.53;;;;;;;18.54;100.00;96652.47;5011512;28;20041;-67
2023/08/14 05:34:30;;;;;;;5.47;4.75;;;;;;;18.68;100.00;96652.22;5011520;28;20037;-69
2023/08/14 05:36:55;;;;;;;9.38;4.68;;;;;;;18.90;100.00;96663.00;5011724;28;20034;-67
2023/08/14 05:39:20;;;;;;;8.05;4.80;;;;;;;19.07;100.00;96658.38;5011420;28;20060;-67
2023/08/14 05:41:46;;;;;;;6.07;4.45;;;;;;;19.09;100.00;96659.50;5011695;28;20034;-67
2023/08/14 05:44:11;;;;;;;10.80;4.55;;;;;;;19.15;100.00;96651.47;5011248;28;20041;-67
2023/08/14 05:46:37;;;;;;;6.47;4.85;;;;;;;19.01;100.00;96652.50;5011581;28;20041;-67
2023/08/14 05:49:02;;;;;;;6.78;4.60;;;;;;;19.19;100.00;96652.16;5011712;28;20030;-67
2023/08/14 05:51:28;;;;;;;9.43;4.68;;;;;;;19.15;100.00;96668.13;5011607;28;20029;-67
2023/08/14 05:53:54;;;;;;;6.47;4.20;;;;;;;19.14;100.00;96661.00;5009761;28;20030;-67
2023/08/14 05:56:19;;;;;;;9.48;5.03;;;;;;;19.31;100.00;96656.31;5011287;28;20506;-67
2023/08/14 05:58:44;;;;;;;8.23;4.45;;;;;;;19.49;100.00;96659.53;5011330;28;20040;-67
2023/08/14 06:01:10;;;;;;;7.25;4.65;;;;;;;19.71;100.00;96663.88;5011163;28;20046;-67
2023/08/14 06:03:37;;;;;;;6.65;4.22;;;;;;;20.01;100.00;96660.88;5012157;28;20030;-67
2023/08/14 06:06:04;;;;;;;7.32;3.97;;;;;;;20.34;100.00;96651.84;5014994;28;20030;-67
2023/08/14 06:08:29;;;;;;;9.02;4.25;;;;;;;20.88;100.00;96647.78;5014654;28;20034;-67
2023/08/14 06:10:54;;;;;;;7.22;3.60;;;;;;;22.26;100.00;96657.50;5014883;28;20084;-67
2023/08/14 06:13:20;;;;;;;7.75;3.55;;;;;;;24.34;100.00;96657.97;5014890;28;20025;-67
2023/08/14 06:15:45;;;;;;;5.18;3.20;;;;;;;25.92;90.01;96657.75;5015158;28;20486;-67
2023/08/14 06:18:11;;;;;;;5.32;3.03;;;;;;;23.97;100.00;96655.00;5015060;28;20445;-67
2023/08/14 06:20:36;;;;;;;7.47;2.40;;;;;;;25.44;94.94;96651.88;5015056;28;20475;-67
2023/08/14 06:23:02;;;;;;;4.60;2.72;;;;;;;27.49;81.92;96675.19;5016548;28;20030;-67
2023/08/14 06:25:31;;;;;;;4.55;2.33;;;;;;;28.77;68.32;96687.22;5017819;28;20029;-67
2023/08/14 06:27:56;;;;;;;4.25;2.63;;;;;;;28.68;65.85;96676.03;5015788;28;20091;-67
2023/08/14 06:30:23;;;;;;;6.50;2.85;;;;;;;28.08;69.63;96677.34;5015434;28;20121;-68
2023/08/14 06:32:49;;;;;;;6.20;3.00;;;;;;;27.53;72.85;96665.31;5015856;28;20386;-66
2023/08/14 06:35:14;;;;;;;4.57;3.40;;;;;;;27.69;71.49;96666.13;5014839;28;20030;-68
2023/08/14 06:37:40;;;;;;;3.58;2.85;;;;;;;27.59;69.82;96665.44;5014950;28;20121;-67
2023/08/14 06:40:06;;;;;;;4.40;2.55;;;;;;;28.35;68.03;96662.97;5014554;28;20091;-66
2023/08/14 06:42:32;;;;;;;4.30;2.75;;;;;;;29.69;61.76;96665.34;5013970;28;20038;-67
2023/08/14 06:44:58;;;;;;;4.60;2.75;;;;;;;29.60;60.81;96662.66;5014110;28;20045;-68
2023/08/14 06:47:23;;;;;;;6.32;3.17;;;;;;;30.09;58.58;96660.13;5014098;28;20109;-67
2023/08/14 06:49:48;;;;;;;7.50;3.00;;;;;;;29.79;57.87;96659.56;5013849;28;20434;-66
2023/08/14 06:52:14;;;;;;;5.28;2.80;;;;;;;29.88;58.46;96657.34;5018829;28;20387;-68
2023/08/14 06:54:39;;;;;;;8.48;2.78;;;;;;;29.94;56.15;96668.69;5015182;28;20030;-69
2023/08/14 06:57:05;;;;;;;4.80;2.83;;;;;;;31.36;53.23;96665.66;5015576;28;20080;-68
2023/08/14 06:59:30;;;;;;;4.28;2.40;;;;;;;32.23;50.34;96673.91;5015157;28;20040;-68
2023/08/14 07:01:57;;;;;;;4.15;2.65;;;;;;;31.37;50.97;96672.88;5014714;28;20049;-68
2023/08/14 07:04:22;;;;;;;3.70;2.63;;;;;;;30.01;54.52;96665.44;5014051;28;20113;-68
2023/08/14 07:06:47;;;;;;;4.97;2.60;;;;;;;30.54;54.97;96671.84;5013632;28;20116;-68
2023/08/14 07:09:16;;;;;;;2.65;1.80;;;;;;;31.68;50.92;96676.09;5013463;28;20479;-66
2023/08/14 07:11:42;;;;;;;4.93;2.53;;;;;;;33.27;47.21;96686.22;5013066;28;20033;-67
2023/08/14 07:14:07;;;;;;;3.90;2.60;;;;;;;33.33;46.20;96675.63;5012893;28;20046;-67
2023/08/14 07:16:33;;;;;;;5.85;3.78;;;;;;;31.88;48.37;96666.63;5013804;28;20448;-67
2023/08/14 07:18:58;;;;;;;4.95;2.15;;;;;;;31.98;48.53;96670.75;5013965;28;20036;-67
2023/08/14 07:21:24;;;;;;;4.25;1.80;;;;;;;33.38;45.89;96682.59;5014092;28;20026;-67
2023/08/14 07:23:49;;;;;;;3.83;1.63;;;;;;;34.41;43.74;96681.53;5013484;28;20034;-67
2023/08/14 07:26:40;;;;;;;5.43;1.83;;;;;;;35.66;40.60;96684.69;5013573;28;20044;-67
2023/08/14 07:29:06;;;;;;;5.22;2.22;;;;;;;32.04;44.15;96674.41;5013474;28;20037;-67
2023/08/14 07:31:31;;;;;;;5.32;1.95;;;;;;;30.23;49.12;96670.53;5013279;28;20061;-67
2023/08/14 07:33:57;;;;;;;2.17;1.40;;;;;;;30.68;50.73;96665.28;5013405;28;20033;-67
2023/08/14 07:36:22;;;;;;;4.97;2.00;;;;;;;29.21;54.16;96667.84;5013527;28;20034;-66
2023/08/14 07:38:47;;;;;;;2.70;1.70;;;;;;;28.90;55.35;96661.53;5013240;28;20521;-67
2023/08/14 07:41:13;;;;;;;6.93;1.73;;;;;;;29.91;54.56;96652.78;5013265;28;20085;-66
2023/08/14 07:43:38;;;;;;;3.78;1.83;;;;;;;31.82;47.98;96667.38;5012898;28;20084;-66
2023/08/14 07:46:04;;;;;;;2.97;1.95;;;;;;;32.76;44.12;96672.13;5013275;28;20029;-66
2023/08/14 07:48:29;;;;;;;3.47;2.15;;;;;;;31.78;46.91;96671.75;5012999;28;20564;-67
2023/08/14 07:50:54;;;;;;;8.30;1.80;;;;;;;29.94;51.19;96663.06;5013086;28;20022;-66
2023/08/14 07:53:20;;;;;;;3.95;1.80;;;;;;;32.03;47.06;96670.00;5013079;28;20449;-66
2023/08/14 07:55:48;;;;;;;5.63;2.20;;;;;;;29.62;53.46;96665.78;5013064;28;20029;-66
2023/08/14 07:58:14;;;;;;;4.20;2.03;;;;;;;32.13;46.06;96673.41;5012932;28;20076;-67
2023/08/14 08:00:39;;;;;;;3.28;1.52;;;;;;;32.74;45.25;96675.47;5013178;28;20065;-66
2023/08/14 08:03:04;;;;;;;4.78;2.10;;;;;;;30.67;47.99;96669.34;5012747;28;20038;-66
2023/08/14 08:05:31;;;;;;;5.88;2.20;;;;;;;30.05;51.41;96662.38;5013813;28;20456;-66
2023/08/14 08:07:56;;;;;;;4.13;2.22;;;;;;;31.94;46.73;96668.16;5013102;28;20034;-66
2023/08/14 08:10:22;;;;;;;5.68;2.17;;;;;;;31.14;49.05;96668.41;5013025;28;20068;-67
2023/08/14 08:12:47;;;;;;;4.78;2.20;;;;;;;30.85;49.53;96659.72;5012631;28;20034;-67
2023/08/14 08:15:13;;;;;;;4.07;2.10;;;;;;;30.65;52.11;96660.63;5012869;28;20036;-67
2023/08/14 08:17:38;;;;;;;4.97;2.70;;;;;;;32.88;47.18;96661.53;5013092;28;20096;-67
2023/08/14 08:20:05;;;;;;;5.53;2.40;;;;;;;30.25;52.72;96658.72;5012696;28;20034;-67
2023/08/14 08:22:31;;;;;;;3.25;2.10;;;;;;;29.20;55.58;96660.66;5011668;28;20037;-67
2023/08/14 08:24:56;;;;;;;4.47;2.25;;;;;;;29.40;56.68;96657.06;5012628;28;20030;-67
2023/08/14 08:27:22;;;;;;;5.50;2.50;;;;;;;30.27;55.26;96653.34;5018704;28;20029;-67
2023/08/14 08:29:47;;;;;;;4.70;2.20;;;;;;;31.53;52.76;96664.97;5014624;28;20108;-67
2023/08/14 08:32:12;;;;;;;7.70;2.10;;;;;;;32.81;48.69;96664.91;5012088;28;20487;-67
2023/08/14 08:34:38;;;;;;;6.45;2.40;;;;;;;34.06;44.59;96680.97;5012465;28;20052;-67
2023/08/14 08:37:03;;;;;;;3.97;2.22;;;;;;;34.73;43.28;96681.03;5012635;28;20030;-67
2023/08/14 08:39:29;;;;;;;3.90;2.28;;;;;;;35.32;41.47;96679.41;5012352;28;20038;-67
2023/08/14 08:41:56;;;;;;;5.43;1.90;;;;;;;35.26;41.64;96678.72;5013133;28;20034;-67
2023/08/14 08:44:24;;;;;;;5.03;2.50;;;;;;;35.36;41.27;96679.88;5010921;28;20037;-67
2023/08/14 08:46:58;;;;;;;4.20;2.20;;;;;;;35.75;40.64;96690.03;5013002;28;20041;-67
2023/08/14 08:49:24;;;;;;;6.53;2.30;;;;;;;35.40;39.95;96682.41;5012613;28;20442;-67
2023/08/14 08:51:51;;;;;;;5.10;1.90;;;;;;;34.64;41.30;96679.25;5012055;28;20022;-67
2023/08/14 08:54:17;;;;;;;2.88;1.80;;;;;;;31.01;47.91;96669.59;5012558;28;20049;-67
2023/08/14 08:56:43;;;;;;;5.22;1.90;;;;;;;31.63;45.63;96666.31;5012621;28;20058;-66
2023/08/14 08:59:11;;;;;;;3.20;1.80;;;;;;;30.27;49.44;96671.09;5013332;28;20029;-67
2023/08/14 09:01:36;;;;;;;5.18;2.22;;;;;;;29.57;50.49;96665.69;5012677;28;20034;-67
2023/08/14 09:04:03;;;;;;;4.07;2.20;;;;;;;28.19;55.19;96655.78;5012599;28;20038;-67
2023/08/14 09:06:28;;;;;;;4.15;2.38;;;;;;;30.71;49.83;96657.06;5012365;28;20076;-67
2023/08/14 09:08:54;;;;;;;6.47;2.20;;;;;;;27.15;61.12;96649.94;5012436;28;20033;-67
2023/08/14 09:11:19;;;;;;;4.95;2.60;;;;;;;28.49;57.63;96657.81;5012372;28;20061;-67
2023/08/14 09:13:46;;;;;;;5.40;2.00;;;;;;;28.19;59.55;96649.38;5011924;28;20041;-67
2023/08/14 09:16:15;;;;;;;5.07;2.53;;;;;;;29.02;58.45;96647.56;5012205;28;20037;-67
2023/08/14 09:18:43;;;;;;;;;;;;;;;30.15;53.79;96648.88;5012252;28;20394;-67
2023/08/14 09:21:10;;;;;;;6.50;2.27;;;;;;;27.98;59.76;96654.94;5012180;28;19921;-67
2023/08/14 09:23:38;;;;;;;4.90;2.53;;;;;;;28.97;58.10;96652.66;5011987;28;20388;-67
2023/08/14 09:26:03;;;;;;;3.17;2.10;;;;;;;30.81;50.84;96652.72;5011973;28;20100;-66
2023/08/14 09:28:29;;;;;;;3.28;2.17;;;;;;;31.53;49.59;96650.81;5011824;28;20033;-67
2023/08/14 09:31:07;;;;;;;6.20;2.40;;;;;;;30.01;54.58;96654.13;5012091;28;20455;-67
2023/08/14 09:33:33;;;;;;;6.60;2.10;;;;;;;29.98;55.57;96645.91;5011679;28;20096;-67
2023/08/14 09:35:58;;;;;;;6.55;3.63;;;;;;;30.24;55.52;96634.59;5012803;28;20030;-66
2023/08/14 09:38:23;;;;;;;3.92;2.55;;;;;;;28.93;58.82;96643.59;5014123;28;20642;-67
2023/08/14 09:40:55;;;;;;;6.00;2.40;;;;;;;28.19;63.42;96629.66;5016102;28;20100;-67
2023/08/14 09:43:20;;;;;;;3.85;2.50;;;;;;;27.73;65.86;96622.47;5015653;28;20072;-67
2023/08/14 09:45:46;;;;;;;6.65;2.50;;;;;;;29.77;59.90;96620.56;5015901;28;20057;-67
2023/08/14 09:48:12;;;;;;;3.33;2.10;;;;;;;28.85;60.24;96631.22;5015823;28;20452;-67
2023/08/14 09:50:37;;;;;;;4.43;2.58;;;;;;;28.68;58.58;96630.97;5014079;28;20482;-67
2023/08/14 09:53:02;;;;;;;4.70;2.05;;;;;;;28.50;56.76;96625.53;5015444;28;20506;-67
2023/08/14 09:55:28;;;;;;;5.13;2.80;;;;;;;29.90;59.54;96615.28;5015377;28;20109;-67
2023/08/14 09:57:55;;;;;;;6.88;2.97;;;;;;;31.32;56.39;96624.75;5015469;28;20030;-67
2023/08/14 10:00:21;;;;;;;6.07;2.78;;;;;;;31.97;54.76;96618.25;5017211;28;20042;-67
2023/08/14 10:02:47;;;;;;;8.02;3.00;;;;;;;32.64;50.84;96628.84;5016062;28;20041;-66
2023/08/14 10:05:14;;;;;;;3.60;2.47;;;;;;;33.14;49.87;96624.38;5018895;28;20032;-66
2023/08/14 10:07:40;;;;;;;5.93;2.72;;;;;;;32.88;51.02;96625.44;5015709;28;20029;-67
2023/08/14 10:10:07;;;;;;;4.72;2.85;;;;;;;32.04;51.53;96611.34;5015287;28;20022;-66
2023/08/14 10:12:49;;;;;;;6.28;2.50;;;;;;;31.61;53.23;96607.38;5015237;28;20033;-66
2023/08/14 10:15:21;;;;;;;6.32;2.95;;;;;;;31.63;53.93;96610.44;5026295;28;20061;-66
2023/08/14 10:18:02;;;;;;;4.97;2.67;;;;;;;31.30;53.17;96604.69;5014905;28;20065;-66
2023/08/14 10:20:32;;;;;;;9.32;2.83;;;;;;;31.75;51.84;96605.59;5014540;28;20122;-66
2023/08/14 10:22:58;;;;;;;5.18;2.67;;;;;;;31.96;51.88;96608.19;5015323;28;20030;-66
2023/08/14 10:25:25;;;;;;;5.35;2.67;;;;;;;31.43;53.34;96602.16;5014843;28;20037;-66
2023/08/14 10:27:51;;;;;;;5.32;2.50;;;;;;;31.72;53.08;96608.69;5014583;28;20109;-67
2023/08/14 10:30:19;;;;;;;5.88;2.95;;;;;;;32.35;50.81;96602.56;5014573;28;20507;-67
2023/08/14 10:32:47;;;;;;;6.97;3.17;;;;;;;32.56;50.75;96602.28;5014410;28;20045;-67
2023/08/14 10:35:12;;;;;;;6.05;2.50;;;;;;;32.21;49.12;96597.91;5014564;28;20060;-66
2023/08/14 10:37:43;;;;;;;7.63;2.55;;;;;;;32.12;53.12;96598.19;5014359;28;20479;-66
2023/08/14 10:40:20;;;;;;;3.85;2.40;;;;;;;32.00;50.87;96591.72;5014293;28;20037;-67
2023/08/14 10:42:55;;;;;;;4.80;2.28;;;;;;;31.98;47.42;96609.25;5013176;28;20435;-67
2023/08/14 10:45:26;;;;;;;8.50;2.50;;;;;;;31.00;52.64;96593.75;5014525;28;20030;-66
2023/08/14 10:47:53;;;;;;;5.35;2.55;;;;;;;31.14;52.58;96600.50;5014393;28;20113;-66
2023/08/14 10:50:23;;;;;;;5.05;2.80;;;;;;;31.08;52.75;96600.50;5013581;28;20091;-66
2023/08/14 10:52:51;;;;;;;7.47;3.00;;;;;;;30.73;54.16;96598.72;5014162;28;20491;-66
2023/08/14 10:55:24;;;;;;;4.78;3.05;;;;;;;30.41;54.75;96595.94;5014488;28;20033;-66
2023/08/14 10:57:50;;;;;;;4.95;3.08;;;;;;;30.43;56.40;96592.63;5014143;28;20041;-67
2023/08/14 11:00:20;;;;;;;8.25;3.90;;;;;;;30.43;58.85;96596.25;5013884;28;20038;-66
2023/08/14 11:02:51;;;;;;;8.50;4.05;;;;;;;31.00;55.84;96593.75;5014234;28;20029;-67
2023/08/14 11:05:17;;;;;;;6.03;3.60;;;;;;;30.47;56.79;96599.59;5013980;28;20057;-67
2023/08/14 11:07:57;;;;;;;6.10;3.10;;;;;;;30.31;58.23;96589.69;5014292;28;20026;-67
2023/08/14 11:10:25;;;;;;;6.88;3.40;;;;;;;30.42;57.75;96597.50;5014905;28;20026;-66
2023/08/14 11:12:51;;;;;;;7.32;3.60;;;;;;;30.29;58.88;96589.44;5014526;28;20025;-66
2023/08/14 11:15:20;;;;;;;6.43;3.22;;;;;;;30.26;59.24;96584.78;5014728;28;20026;-66
2023/08/14 11:17:46;;;;;;;5.72;3.22;;;;;;;29.95;60.32;96587.63;5014397;28;20032;-66
2023/08/14 11:20:12;;;;;;;7.93;3.45;;;;;;;30.18;59.95;96585.72;5013750;28;20026;-66
2023/08/14 11:22:38;;;;;;;5.60;3.15;;;;;;;29.96;59.18;96580.69;5013743;28;20025;-66
2023/08/14 11:25:05;;;;;;;5.60;3.50;;;;;;;29.56;59.99;96580.28;5013832;28;20037;-66
2023/08/14 11:27:30;;;;;;;7.93;3.70;;;;;;;29.64;60.58;96577.78;5013801;28;20030;-66